sensor_id;sensor_type;location;lat;lon;timestamp;temperature;humidity
44277;DHT22;29973;43.742;1.236;2023-07-13T00:00:19;19.30;99.90
44277;DHT22;29973;43.742;1.236;2023-07-13T00:02:46;19.20;99.90
44277;DHT22;29973;43.742;1.236;2023-07-13T00:05:11;19.20;99.90
44277;DHT22;29973;43.742;1.236;2023-07-13T00:07:37;19.20;99.90
44277;DHT22;29973;43.742;1.236;2023-07-13T00:10:03;19.20;99.90
44277;DHT22;29973;43.742;1.236;2023-07-13T00:12:34;19.30;99.90
44277;DHT22;29973;43.742;1.236;2023-07-13T00:15:05;19.30;99.90
44277;DHT22;29973;43.742;1.236;2023-07-13T00:17:31;19.30;99.90
44277;DHT22;29973;43.742;1.236;2023-07-13T00:19:58;19.20;99.90
44277;DHT22;29973;43.742;1.236;2023-07-13T00:22:24;19.30;99.90
44277;DHT22;29973;43.742;1.236;2023-07-13T00:24:52;19.10;99.90
44277;DHT22;29973;43.742;1.236;2023-07-13T00:27:18;19.10;99.90
44277;DHT22;29973;43.742;1.236;2023-07-13T00:29:44;18.90;99.90
44277;DHT22;29973;43.742;1.236;2023-07-13T00:32:10;18.90;99.90
44277;DHT22;29973;43.742;1.236;2023-07-13T00:34:37;19.00;99.90
44277;DHT22;29973;43.742;1.236;2023-07-13T00:37:04;19.10;99.90
44277;DHT22;29973;43.742;1.236;2023-07-13T00:39:32;19.20;99.90
44277;DHT22;29973;43.742;1.236;2023-07-13T00:41:58;19.20;99.90
44277;DHT22;29973;43.742;1.236;2023-07-13T00:44:24;19.20;99.90
44277;DHT22;29973;43.742;1.236;2023-07-13T00:46:50;19.20;99.90
44277;DHT22;29973;43.742;1.236;2023-07-13T00:49:19;19.10;99.90
44277;DHT22;29973;43.742;1.236;2023-07-13T00:51:56;19.20;99.90
44277;DHT22;29973;43.742;1.236;2023-07-13T00:54:55;19.00;99.90
44277;DHT22;29973;43.742;1.236;2023-07-13T00:57:21;19.00;99.90
44277;DHT22;29973;43.742;1.236;2023-07-13T00:59:54;19.00;99.90
44277;DHT22;29973;43.742;1.236;2023-07-13T01:02:21;19.10;99.90
44277;DHT22;29973;43.742;1.236;2023-07-13T01:04:47;19.10;99.90
44277;DHT22;29973;43.742;1.236;2023-07-13T01:07:13;19.10;99.90
44277;DHT22;29973;43.742;1.236;2023-07-13T01:09:39;19.00;99.90
44277;DHT22;29973;43.742;1.236;2023-07-13T01:12:06;19.00;99.90
44277;DHT22;29973;43.742;1.236;2023-07-13T01:14:32;19.10;99.90
44277;DHT22;29973;43.742;1.236;2023-07-13T01:16:58;18.90;99.90
44277;DHT22;29973;43.742;1.236;2023-07-13T01:19:38;19.00;99.90
44277;DHT22;29973;43.742;1.236;2023-07-13T01:22:09;18.90;99.90
44277;DHT22;29973;43.742;1.236;2023-07-13T01:24:38;18.80;99.90
44277;DHT22;29973;43.742;1.236;2023-07-13T01:27:05;18.90;99.90
44277;DHT22;29973;43.742;1.236;2023-07-13T01:29:33;18.80;99.90
44277;DHT22;29973;43.742;1.236;2023-07-13T01:31:59;18.90;99.90
44277;DHT22;29973;43.742;1.236;2023-07-13T01:34:27;18.80;99.90
44277;DHT22;29973;43.742;1.236;2023-07-13T01:36:53;18.80;99.90
44277;DHT22;29973;43.742;1.236;2023-07-13T01:39:20;18.70;99.90
44277;DHT22;29973;43.742;1.236;2023-07-13T01:41:46;18.60;99.90
44277;DHT22;29973;43.742;1.236;2023-07-13T01:44:12;18.70;99.90
44277;DHT22;29973;43.742;1.236;2023-07-13T01:46:38;18.60;99.90
44277;DHT22;29973;43.742;1.236;2023-07-13T01:49:03;18.60;99.90
44277;DHT22;29973;43.742;1.236;2023-07-13T01:51:29;18.50;99.90
44277;DHT22;29973;43.742;1.236;2023-07-13T01:53:55;18.30;99.90
44277;DHT22;29973;43.742;1.236;2023-07-13T01:56:20;18.30;99.90
44277;DHT22;29973;43.742;1.236;2023-07-13T01:58:46;18.20;99.90
44277;DHT22;29973;43.742;1.236;2023-07-13T02:01:12;18.30;99.90
44277;DHT22;29973;43.742;1.236;2023-07-13T02:03:38;18.20;99.90
44277;DHT22;29973;43.742;1.236;2023-07-13T02:06:03;17.90;99.90
44277;DHT22;29973;43.742;1.236;2023-07-13T02:08:29;17.80;99.90
44277;DHT22;29973;43.742;1.236;2023-07-13T02:10:55;17.70;99.90
44277;DHT22;29973;43.742;1.236;2023-07-13T02:13:20;17.60;99.90
44277;DHT22;29973;43.742;1.236;2023-07-13T02:15:46;17.60;99.90
44277;DHT22;29973;43.742;1.236;2023-07-13T02:18:15;17.40;99.90
44277;DHT22;29973;43.742;1.236;2023-07-13T02:20:42;17.40;99.90
44277;DHT22;29973;43.742;1.236;2023-07-13T02:23:08;17.40;99.90
44277;DHT22;29973;43.742;1.236;2023-07-13T02:25:34;17.40;99.90
44277;DHT22;29973;43.742;1.236;2023-07-13T02:28:00;17.50;99.90
44277;DHT22;29973;43.742;1.236;2023-07-13T02:30:27;17.50;99.90
44277;DHT22;29973;43.742;1.236;2023-07-13T02:32:55;17.50;99.90
44277;DHT22;29973;43.742;1.236;2023-07-13T02:35:21;17.70;99.90
44277;DHT22;29973;43.742;1.236;2023-07-13T02:37:47;17.80;99.90
44277;DHT22;29973;43.742;1.236;2023-07-13T02:40:13;17.90;99.90
44277;DHT22;29973;43.742;1.236;2023-07-13T02:42:39;17.90;99.90
44277;DHT22;29973;43.742;1.236;2023-07-13T02:45:06;17.90;99.90
44277;DHT22;29973;43.742;1.236;2023-07-13T02:47:32;18.00;99.90
44277;DHT22;29973;43.742;1.236;2023-07-13T02:49:58;18.00;99.90
44277;DHT22;29973;43.742;1.236;2023-07-13T02:52:24;18.00;99.90
44277;DHT22;29973;43.742;1.236;2023-07-13T02:54:50;17.90;99.90
44277;DHT22;29973;43.742;1.236;2023-07-13T02:57:15;17.90;99.90
44277;DHT22;29973;43.742;1.236;2023-07-13T02:59:41;18.00;99.90
44277;DHT22;29973;43.742;1.236;2023-07-13T03:02:07;18.00;99.90
44277;DHT22;29973;43.742;1.236;2023-07-13T03:04:36;17.90;99.90
44277;DHT22;29973;43.742;1.236;2023-07-13T03:07:02;17.90;99.90
44277;DHT22;29973;43.742;1.236;2023-07-13T03:09:27;17.80;99.90
44277;DHT22;29973;43.742;1.236;2023-07-13T03:11:54;17.80;99.90
44277;DHT22;29973;43.742;1.236;2023-07-13T03:14:21;17.80;99.90
44277;DHT22;29973;43.742;1.236;2023-07-13T03:16:47;17.80;99.90
44277;DHT22;29973;43.742;1.236;2023-07-13T03:19:13;17.90;99.90
44277;DHT22;29973;43.742;1.236;2023-07-13T03:21:38;17.80;99.90
44277;DHT22;29973;43.742;1.236;2023-07-13T03:24:04;17.80;99.90
44277;DHT22;29973;43.742;1.236;2023-07-13T03:26:30;17.70;99.90
44277;DHT22;29973;43.742;1.236;2023-07-13T03:28:56;17.70;99.90
44277;DHT22;29973;43.742;1.236;2023-07-13T03:31:27;17.70;99.90
44277;DHT22;29973;43.742;1.236;2023-07-13T03:33:54;17.60;99.90
44277;DHT22;29973;43.742;1.236;2023-07-13T03:36:22;17.50;99.90
44277;DHT22;29973;43.742;1.236;2023-07-13T03:38:58;17.40;99.90
44277;DHT22;29973;43.742;1.236;2023-07-13T03:41:24;17.20;99.90
44277;DHT22;29973;43.742;1.236;2023-07-13T03:43:50;17.20;99.90
44277;DHT22;29973;43.742;1.236;2023-07-13T03:46:17;17.00;99.90
44277;DHT22;29973;43.742;1.236;2023-07-13T03:48:44;16.90;99.90
44277;DHT22;29973;43.742;1.236;2023-07-13T03:51:12;16.80;99.90
44277;DHT22;29973;43.742;1.236;2023-07-13T03:53:41;16.60;99.90
44277;DHT22;29973;43.742;1.236;2023-07-13T03:56:07;16.50;99.90
44277;DHT22;29973;43.742;1.236;2023-07-13T03:58:36;16.50;99.90
44277;DHT22;29973;43.742;1.236;2023-07-13T04:01:04;16.50;99.90
44277;DHT22;29973;43.742;1.236;2023-07-13T04:03:38;16.50;99.90
44277;DHT22;29973;43.742;1.236;2023-07-13T04:06:06;16.50;99.90
44277;DHT22;29973;43.742;1.236;2023-07-13T04:08:33;16.60;99.90
44277;DHT22;29973;43.742;1.236;2023-07-13T04:11:00;16.70;99.90
44277;DHT22;29973;43.742;1.236;2023-07-13T04:13:27;16.90;99.90
44277;DHT22;29973;43.742;1.236;2023-07-13T04:15:53;16.90;99.90
44277;DHT22;29973;43.742;1.236;2023-07-13T04:18:20;16.90;99.90
44277;DHT22;29973;43.742;1.236;2023-07-13T04:20:49;16.90;99.90
44277;DHT22;29973;43.742;1.236;2023-07-13T04:23:16;17.00;99.90
44277;DHT22;29973;43.742;1.236;2023-07-13T04:25:51;17.10;99.90
44277;DHT22;29973;43.742;1.236;2023-07-13T04:28:21;17.00;99.90
44277;DHT22;29973;43.742;1.236;2023-07-13T04:30:46;17.00;99.90
44277;DHT22;29973;43.742;1.236;2023-07-13T04:33:12;16.90;99.90
44277;DHT22;29973;43.742;1.236;2023-07-13T04:35:38;17.00;99.90
44277;DHT22;29973;43.742;1.236;2023-07-13T04:38:04;17.00;99.90
44277;DHT22;29973;43.742;1.236;2023-07-13T04:40:31;17.10;99.90
44277;DHT22;29973;43.742;1.236;2023-07-13T04:42:56;17.10;99.90
44277;DHT22;29973;43.742;1.236;2023-07-13T04:45:23;17.00;99.90
44277;DHT22;29973;43.742;1.236;2023-07-13T04:47:49;17.00;99.90
44277;DHT22;29973;43.742;1.236;2023-07-13T04:50:15;17.00;99.90
44277;DHT22;29973;43.742;1.236;2023-07-13T04:52:45;17.00;99.90
44277;DHT22;29973;43.742;1.236;2023-07-13T04:55:11;17.10;99.90
44277;DHT22;29973;43.742;1.236;2023-07-13T04:57:37;17.10;99.90
44277;DHT22;29973;43.742;1.236;2023-07-13T05:00:04;17.10;99.90
44277;DHT22;29973;43.742;1.236;2023-07-13T05:02:32;17.20;99.90
44277;DHT22;29973;43.742;1.236;2023-07-13T05:04:59;17.20;99.90
44277;DHT22;29973;43.742;1.236;2023-07-13T05:07:25;17.30;99.90
44277;DHT22;29973;43.742;1.236;2023-07-13T05:09:51;17.30;99.90
44277;DHT22;29973;43.742;1.236;2023-07-13T05:12:17;17.30;99.90
44277;DHT22;29973;43.742;1.236;2023-07-13T05:14:43;17.30;99.90
44277;DHT22;29973;43.742;1.236;2023-07-13T05:17:08;17.30;99.90
44277;DHT22;29973;43.742;1.236;2023-07-13T05:19:34;17.40;99.90
44277;DHT22;29973;43.742;1.236;2023-07-13T05:22:00;17.40;99.90
44277;DHT22;29973;43.742;1.236;2023-07-13T05:24:26;17.50;99.90
44277;DHT22;29973;43.742;1.236;2023-07-13T05:26:52;17.50;99.90
44277;DHT22;29973;43.742;1.236;2023-07-13T05:29:19;17.40;99.90
44277;DHT22;29973;43.742;1.236;2023-07-13T05:31:45;17.30;99.90
44277;DHT22;29973;43.742;1.236;2023-07-13T05:34:10;17.40;99.90
44277;DHT22;29973;43.742;1.236;2023-07-13T05:36:36;17.50;99.90
44277;DHT22;29973;43.742;1.236;2023-07-13T05:39:03;17.50;99.90
44277;DHT22;29973;43.742;1.236;2023-07-13T05:41:29;17.50;99.90
44277;DHT22;29973;43.742;1.236;2023-07-13T05:43:55;17.60;99.90
44277;DHT22;29973;43.742;1.236;2023-07-13T05:46:20;17.60;99.90
44277;DHT22;29973;43.742;1.236;2023-07-13T05:48:46;17.80;99.90
44277;DHT22;29973;43.742;1.236;2023-07-13T05:51:12;17.60;99.90
44277;DHT22;29973;43.742;1.236;2023-07-13T05:53:38;17.90;99.90
44277;DHT22;29973;43.742;1.236;2023-07-13T05:56:04;17.90;99.90
44277;DHT22;29973;43.742;1.236;2023-07-13T05:58:30;18.20;99.90
44277;DHT22;29973;43.742;1.236;2023-07-13T06:01:06;18.40;99.90
44277;DHT22;29973;43.742;1.236;2023-07-13T06:03:33;18.40;99.90
44277;DHT22;29973;43.742;1.236;2023-07-13T06:05:58;18.60;99.90
44277;DHT22;29973;43.742;1.236;2023-07-13T06:08:26;18.60;99.90
44277;DHT22;29973;43.742;1.236;2023-07-13T06:10:52;18.50;99.90
44277;DHT22;29973;43.742;1.236;2023-07-13T06:13:18;18.60;99.90
44277;DHT22;29973;43.742;1.236;2023-07-13T06:15:48;18.70;99.90
44277;DHT22;29973;43.742;1.236;2023-07-13T06:18:14;18.70;99.90
44277;DHT22;29973;43.742;1.236;2023-07-13T06:20:40;18.80;99.90
44277;DHT22;29973;43.742;1.236;2023-07-13T06:23:06;18.70;99.90
44277;DHT22;29973;43.742;1.236;2023-07-13T06:25:31;18.90;99.90
44277;DHT22;29973;43.742;1.236;2023-07-13T06:27:57;19.00;99.90
44277;DHT22;29973;43.742;1.236;2023-07-13T06:30:23;19.10;99.90
44277;DHT22;29973;43.742;1.236;2023-07-13T06:32:49;19.40;99.90
44277;DHT22;29973;43.742;1.236;2023-07-13T06:35:15;19.60;99.90
44277;DHT22;29973;43.742;1.236;2023-07-13T06:37:41;19.90;99.90
44277;DHT22;29973;43.742;1.236;2023-07-13T06:40:08;19.80;99.90
44277;DHT22;29973;43.742;1.236;2023-07-13T06:42:34;19.60;99.90
44277;DHT22;29973;43.742;1.236;2023-07-13T06:45:00;19.90;99.90
44277;DHT22;29973;43.742;1.236;2023-07-13T06:47:26;20.00;99.90
44277;DHT22;29973;43.742;1.236;2023-07-13T06:49:52;20.10;99.90
44277;DHT22;29973;43.742;1.236;2023-07-13T06:52:18;19.70;99.90
44277;DHT22;29973;43.742;1.236;2023-07-13T06:54:43;20.00;99.90
44277;DHT22;29973;43.742;1.236;2023-07-13T06:57:09;20.10;99.90
44277;DHT22;29973;43.742;1.236;2023-07-13T06:59:35;20.40;99.90
44277;DHT22;29973;43.742;1.236;2023-07-13T07:02:01;20.50;99.90
44277;DHT22;29973;43.742;1.236;2023-07-13T07:04:26;20.60;99.90
44277;DHT22;29973;43.742;1.236;2023-07-13T07:06:52;20.40;99.90
44277;DHT22;29973;43.742;1.236;2023-07-13T07:09:18;20.50;99.90
44277;DHT22;29973;43.742;1.236;2023-07-13T07:11:44;20.40;99.90
44277;DHT22;29973;43.742;1.236;2023-07-13T07:14:10;20.60;99.90
44277;DHT22;29973;43.742;1.236;2023-07-13T07:16:37;20.60;99.90
44277;DHT22;29973;43.742;1.236;2023-07-13T07:19:05;20.80;99.90
44277;DHT22;29973;43.742;1.236;2023-07-13T07:21:34;20.80;99.90
44277;DHT22;29973;43.742;1.236;2023-07-13T07:24:00;20.60;99.80
44277;DHT22;29973;43.742;1.236;2023-07-13T07:26:28;20.80;99.90
44277;DHT22;29973;43.742;1.236;2023-07-13T07:28:55;20.80;99.90
44277;DHT22;29973;43.742;1.236;2023-07-13T07:31:23;21.00;99.90
44277;DHT22;29973;43.742;1.236;2023-07-13T07:33:50;21.00;99.40
44277;DHT22;29973;43.742;1.236;2023-07-13T07:36:16;21.00;98.60
44277;DHT22;29973;43.742;1.236;2023-07-13T07:38:43;21.20;99.00
44277;DHT22;29973;43.742;1.236;2023-07-13T07:41:15;20.70;99.40
44277;DHT22;29973;43.742;1.236;2023-07-13T07:43:41;21.00;99.60
44277;DHT22;29973;43.742;1.236;2023-07-13T07:46:07;21.10;98.40
44277;DHT22;29973;43.742;1.236;2023-07-13T07:48:33;20.70;99.10
44277;DHT22;29973;43.742;1.236;2023-07-13T07:50:58;20.70;98.60
44277;DHT22;29973;43.742;1.236;2023-07-13T07:53:26;20.70;98.10
44277;DHT22;29973;43.742;1.236;2023-07-13T07:55:53;21.00;99.10
44277;DHT22;29973;43.742;1.236;2023-07-13T07:58:19;20.90;99.90
44277;DHT22;29973;43.742;1.236;2023-07-13T08:00:44;20.90;98.30
44277;DHT22;29973;43.742;1.236;2023-07-13T08:03:10;20.60;97.80
44277;DHT22;29973;43.742;1.236;2023-07-13T08:05:36;20.70;98.10
44277;DHT22;29973;43.742;1.236;2023-07-13T08:08:03;20.50;97.70
44277;DHT22;29973;43.742;1.236;2023-07-13T08:10:29;20.80;98.20
44277;DHT22;29973;43.742;1.236;2023-07-13T08:12:56;20.90;97.10
44277;DHT22;29973;43.742;1.236;2023-07-13T08:15:21;20.90;96.30
44277;DHT22;29973;43.742;1.236;2023-07-13T08:17:49;21.00;95.90
44277;DHT22;29973;43.742;1.236;2023-07-13T08:20:15;21.10;95.90
44277;DHT22;29973;43.742;1.236;2023-07-13T08:22:41;21.20;96.20
44277;DHT22;29973;43.742;1.236;2023-07-13T08:25:07;20.80;95.40
44277;DHT22;29973;43.742;1.236;2023-07-13T08:27:33;21.00;94.50
44277;DHT22;29973;43.742;1.236;2023-07-13T08:29:59;21.10;94.80
44277;DHT22;29973;43.742;1.236;2023-07-13T08:32:25;21.30;95.50
44277;DHT22;29973;43.742;1.236;2023-07-13T08:34:50;21.40;95.90
44277;DHT22;29973;43.742;1.236;2023-07-13T08:37:17;21.30;94.40
44277;DHT22;29973;43.742;1.236;2023-07-13T08:39:43;21.10;94.10
44277;DHT22;29973;43.742;1.236;2023-07-13T08:42:39;21.70;93.90
44277;DHT22;29973;43.742;1.236;2023-07-13T08:47:43;22.20;93.80
44277;DHT22;29973;43.742;1.236;2023-07-13T08:50:13;22.60;92.70
44277;DHT22;29973;43.742;1.236;2023-07-13T08:52:42;23.30;91.00
44277;DHT22;29973;43.742;1.236;2023-07-13T08:57:46;23.60;91.50
44277;DHT22;29973;43.742;1.236;2023-07-13T09:00:14;23.20;92.00
44277;DHT22;29973;43.742;1.236;2023-07-13T09:02:56;23.20;90.50
44277;DHT22;29973;43.742;1.236;2023-07-13T09:05:33;22.80;91.70
44277;DHT22;29973;43.742;1.236;2023-07-13T09:08:38;23.60;93.20
44277;DHT22;29973;43.742;1.236;2023-07-13T09:14:47;23.40;91.10
44277;DHT22;29973;43.742;1.236;2023-07-13T09:17:27;23.60;91.10
44277;DHT22;29973;43.742;1.236;2023-07-13T09:20:00;22.50;92.90
44277;DHT22;29973;43.742;1.236;2023-07-13T09:22:29;23.30;91.80
44277;DHT22;29973;43.742;1.236;2023-07-13T09:25:12;23.00;90.60
44277;DHT22;29973;43.742;1.236;2023-07-13T09:27:46;23.30;89.20
44277;DHT22;29973;43.742;1.236;2023-07-13T09:32:45;24.20;85.30
44277;DHT22;29973;43.742;1.236;2023-07-13T09:35:16;23.60;88.40
44277;DHT22;29973;43.742;1.236;2023-07-13T09:37:44;23.30;87.40
44277;DHT22;29973;43.742;1.236;2023-07-13T09:40:17;23.80;90.70
44277;DHT22;29973;43.742;1.236;2023-07-13T09:42:46;24.20;86.50
44277;DHT22;29973;43.742;1.236;2023-07-13T09:45:17;24.10;84.30
44277;DHT22;29973;43.742;1.236;2023-07-13T09:47:59;24.10;85.10
44277;DHT22;29973;43.742;1.236;2023-07-13T09:50:25;24.30;85.30
44277;DHT22;29973;43.742;1.236;2023-07-13T09:52:51;23.80;89.10
44277;DHT22;29973;43.742;1.236;2023-07-13T09:55:25;23.30;87.70
44277;DHT22;29973;43.742;1.236;2023-07-13T09:57:51;23.70;87.80
44277;DHT22;29973;43.742;1.236;2023-07-13T10:00:29;23.90;84.10
44277;DHT22;29973;43.742;1.236;2023-07-13T10:03:16;24.30;86.20
44277;DHT22;29973;43.742;1.236;2023-07-13T10:05:44;24.20;85.50
44277;DHT22;29973;43.742;1.236;2023-07-13T10:08:23;23.50;85.30
44277;DHT22;29973;43.742;1.236;2023-07-13T10:10:53;24.90;84.90
44277;DHT22;29973;43.742;1.236;2023-07-13T10:13:30;25.90;81.20
44277;DHT22;29973;43.742;1.236;2023-07-13T10:15:58;23.90;83.90
44277;DHT22;29973;43.742;1.236;2023-07-13T10:18:25;24.10;85.70
44277;DHT22;29973;43.742;1.236;2023-07-13T10:21:09;25.10;84.80
44277;DHT22;29973;43.742;1.236;2023-07-13T10:23:35;25.10;79.70
44277;DHT22;29973;43.742;1.236;2023-07-13T10:26:01;25.00;80.70
44277;DHT22;29973;43.742;1.236;2023-07-13T10:28:31;25.00;79.10
44277;DHT22;29973;43.742;1.236;2023-07-13T10:30:59;25.20;77.70
44277;DHT22;29973;43.742;1.236;2023-07-13T10:33:27;25.00;81.30
44277;DHT22;29973;43.742;1.236;2023-07-13T10:36:01;25.30;81.60
44277;DHT22;29973;43.742;1.236;2023-07-13T10:38:29;23.80;84.30
44277;DHT22;29973;43.742;1.236;2023-07-13T10:41:02;25.00;83.40
44277;DHT22;29973;43.742;1.236;2023-07-13T10:43:42;24.30;82.10
44277;DHT22;29973;43.742;1.236;2023-07-13T10:46:14;24.80;82.20
44277;DHT22;29973;43.742;1.236;2023-07-13T10:48:43;25.30;77.30
44277;DHT22;29973;43.742;1.236;2023-07-13T10:51:10;24.60;82.60
44277;DHT22;29973;43.742;1.236;2023-07-13T10:53:38;25.20;79.10
44277;DHT22;29973;43.742;1.236;2023-07-13T10:58:43;25.80;79.80
44277;DHT22;29973;43.742;1.236;2023-07-13T11:01:15;25.70;75.70
44277;DHT22;29973;43.742;1.236;2023-07-13T11:14:02;26.50;74.90
44277;DHT22;29973;43.742;1.236;2023-07-13T11:16:34;25.40;80.10
44277;DHT22;29973;43.742;1.236;2023-07-13T11:21:29;25.50;77.30
44277;DHT22;29973;43.742;1.236;2023-07-13T11:24:22;24.70;78.20
44277;DHT22;29973;43.742;1.236;2023-07-13T11:31:59;25.10;76.60
44277;DHT22;29973;43.742;1.236;2023-07-13T11:34:29;26.40;75.60
44277;DHT22;29973;43.742;1.236;2023-07-13T11:36:56;26.50;73.20
44277;DHT22;29973;43.742;1.236;2023-07-13T11:39:35;27.30;72.90
44277;DHT22;29973;43.742;1.236;2023-07-13T11:42:05;26.60;71.00
44277;DHT22;29973;43.742;1.236;2023-07-13T11:44:33;26.50;73.10
44277;DHT22;29973;43.742;1.236;2023-07-13T11:47:07;26.30;72.30
44277;DHT22;29973;43.742;1.236;2023-07-13T11:49:42;25.10;77.00
44277;DHT22;29973;43.742;1.236;2023-07-13T11:52:15;26.40;74.70
44277;DHT22;29973;43.742;1.236;2023-07-13T11:54:52;28.40;64.70
44277;DHT22;29973;43.742;1.236;2023-07-13T11:57:37;27.90;67.50
44277;DHT22;29973;43.742;1.236;2023-07-13T12:00:15;26.70;66.80
44277;DHT22;29973;43.742;1.236;2023-07-13T12:02:45;26.10;75.70
44277;DHT22;29973;43.742;1.236;2023-07-13T12:05:13;26.80;68.70
44277;DHT22;29973;43.742;1.236;2023-07-13T12:07:40;27.10;68.00
44277;DHT22;29973;43.742;1.236;2023-07-13T12:12:36;26.40;72.80
44277;DHT22;29973;43.742;1.236;2023-07-13T12:15:07;25.60;72.10
44277;DHT22;29973;43.742;1.236;2023-07-13T12:17:35;25.20;71.40
44277;DHT22;29973;43.742;1.236;2023-07-13T12:20:24;25.80;72.70
44277;DHT22;29973;43.742;1.236;2023-07-13T12:22:51;26.10;67.00
44277;DHT22;29973;43.742;1.236;2023-07-13T12:25:18;27.00;68.70
44277;DHT22;29973;43.742;1.236;2023-07-13T12:27:47;27.30;65.90
44277;DHT22;29973;43.742;1.236;2023-07-13T12:30:30;27.20;67.10
44277;DHT22;29973;43.742;1.236;2023-07-13T12:33:01;27.90;65.20
44277;DHT22;29973;43.742;1.236;2023-07-13T12:35:30;28.40;64.50
44277;DHT22;29973;43.742;1.236;2023-07-13T12:38:02;29.80;61.50
44277;DHT22;29973;43.742;1.236;2023-07-13T12:40:33;28.80;59.50
44277;DHT22;29973;43.742;1.236;2023-07-13T12:43:01;28.40;64.30
44277;DHT22;29973;43.742;1.236;2023-07-13T12:45:30;30.20;58.90
44277;DHT22;29973;43.742;1.236;2023-07-13T12:48:13;29.50;58.00
44277;DHT22;29973;43.742;1.236;2023-07-13T12:50:43;31.30;54.80
44277;DHT22;29973;43.742;1.236;2023-07-13T12:53:18;32.00;53.20
44277;DHT22;29973;43.742;1.236;2023-07-13T12:55:47;30.80;52.60
44277;DHT22;29973;43.742;1.236;2023-07-13T12:58:21;31.60;53.30
44277;DHT22;29973;43.742;1.236;2023-07-13T13:00:51;33.30;49.40
44277;DHT22;29973;43.742;1.236;2023-07-13T13:06:00;31.60;54.20
44277;DHT22;29973;43.742;1.236;2023-07-13T13:08:29;32.60;50.10
44277;DHT22;29973;43.742;1.236;2023-07-13T13:10:54;29.10;53.40
44277;DHT22;29973;43.742;1.236;2023-07-13T13:13:20;27.50;60.50
44277;DHT22;29973;43.742;1.236;2023-07-13T13:15:48;25.70;67.10
44277;DHT22;29973;43.742;1.236;2023-07-13T13:18:20;27.50;59.40
44277;DHT22;29973;43.742;1.236;2023-07-13T13:20:47;29.80;58.10
44277;DHT22;29973;43.742;1.236;2023-07-13T13:23:14;34.40;47.80
44277;DHT22;29973;43.742;1.236;2023-07-13T13:25:46;31.50;50.80
44277;DHT22;29973;43.742;1.236;2023-07-13T13:28:19;29.50;53.70
44277;DHT22;29973;43.742;1.236;2023-07-13T13:30:46;26.60;60.10
44277;DHT22;29973;43.742;1.236;2023-07-13T13:33:15;28.30;60.50
44277;DHT22;29973;43.742;1.236;2023-07-13T13:35:42;32.20;52.40
44277;DHT22;29973;43.742;1.236;2023-07-13T13:38:13;28.50;54.40
44277;DHT22;29973;43.742;1.236;2023-07-13T13:40:40;32.00;48.60
44277;DHT22;29973;43.742;1.236;2023-07-13T13:43:23;31.10;53.00
44277;DHT22;29973;43.742;1.236;2023-07-13T13:45:55;30.30;54.50
44277;DHT22;29973;43.742;1.236;2023-07-13T13:48:30;31.30;48.00
44277;DHT22;29973;43.742;1.236;2023-07-13T13:50:57;34.20;48.20
44277;DHT22;29973;43.742;1.236;2023-07-13T13:53:23;31.60;49.20
44277;DHT22;29973;43.742;1.236;2023-07-13T13:55:50;31.20;49.00
44277;DHT22;29973;43.742;1.236;2023-07-13T13:58:17;32.20;46.70
44277;DHT22;29973;43.742;1.236;2023-07-13T14:00:43;33.10;43.80
44277;DHT22;29973;43.742;1.236;2023-07-13T14:03:17;34.40;41.40
44277;DHT22;29973;43.742;1.236;2023-07-13T14:05:44;32.20;45.40
44277;DHT22;29973;43.742;1.236;2023-07-13T14:08:18;30.80;46.80
44277;DHT22;29973;43.742;1.236;2023-07-13T14:10:46;32.70;46.80
44277;DHT22;29973;43.742;1.236;2023-07-13T14:13:17;31.60;49.90
44277;DHT22;29973;43.742;1.236;2023-07-13T14:15:44;34.40;42.70
44277;DHT22;29973;43.742;1.236;2023-07-13T14:18:10;33.50;43.40
44277;DHT22;29973;43.742;1.236;2023-07-13T14:20:37;32.90;44.50
44277;DHT22;29973;43.742;1.236;2023-07-13T14:23:04;34.60;41.80
44277;DHT22;29973;43.742;1.236;2023-07-13T14:25:29;36.00;41.50
44277;DHT22;29973;43.742;1.236;2023-07-13T14:27:58;37.10;38.00
44277;DHT22;29973;43.742;1.236;2023-07-13T14:30:33;32.30;45.30
44277;DHT22;29973;43.742;1.236;2023-07-13T14:32:59;30.00;48.50
44277;DHT22;29973;43.742;1.236;2023-07-13T14:35:25;29.60;50.20
44277;DHT22;29973;43.742;1.236;2023-07-13T14:37:51;28.70;50.60
44277;DHT22;29973;43.742;1.236;2023-07-13T14:40:28;29.40;50.50
44277;DHT22;29973;43.742;1.236;2023-07-13T14:42:54;28.80;49.30
44277;DHT22;29973;43.742;1.236;2023-07-13T14:45:23;29.30;51.70
44277;DHT22;29973;43.742;1.236;2023-07-13T14:47:50;30.60;49.80
44277;DHT22;29973;43.742;1.236;2023-07-13T14:50:26;31.00;49.00
44277;DHT22;29973;43.742;1.236;2023-07-13T14:52:52;32.20;48.40
44277;DHT22;29973;43.742;1.236;2023-07-13T14:55:19;32.80;48.00
44277;DHT22;29973;43.742;1.236;2023-07-13T14:57:45;34.90;42.10
44277;DHT22;29973;43.742;1.236;2023-07-13T15:00:21;33.50;38.60
44277;DHT22;29973;43.742;1.236;2023-07-13T15:02:52;31.80;45.80
44277;DHT22;29973;43.742;1.236;2023-07-13T15:05:24;30.60;45.10
44277;DHT22;29973;43.742;1.236;2023-07-13T15:07:53;29.50;47.90
44277;DHT22;29973;43.742;1.236;2023-07-13T15:10:25;30.10;48.50
44277;DHT22;29973;43.742;1.236;2023-07-13T15:13:01;30.50;47.60
44277;DHT22;29973;43.742;1.236;2023-07-13T15:15:30;30.60;45.20
44277;DHT22;29973;43.742;1.236;2023-07-13T15:18:00;30.90;47.30
44277;DHT22;29973;43.742;1.236;2023-07-13T15:20:29;29.10;49.90
44277;DHT22;29973;43.742;1.236;2023-07-13T15:22:56;30.10;46.40
44277;DHT22;29973;43.742;1.236;2023-07-13T15:25:25;31.90;43.30
44277;DHT22;29973;43.742;1.236;2023-07-13T15:27:55;34.50;39.70
44277;DHT22;29973;43.742;1.236;2023-07-13T15:30:22;32.20;42.70
44277;DHT22;29973;43.742;1.236;2023-07-13T15:32:49;33.90;38.80
44277;DHT22;29973;43.742;1.236;2023-07-13T15:35:25;36.70;34.70
44277;DHT22;29973;43.742;1.236;2023-07-13T15:37:51;35.20;36.80
44277;DHT22;29973;43.742;1.236;2023-07-13T15:40:17;31.50;38.50
44277;DHT22;29973;43.742;1.236;2023-07-13T15:42:45;32.20;40.10
44277;DHT22;29973;43.742;1.236;2023-07-13T15:47:41;33.50;37.50
44277;DHT22;29973;43.742;1.236;2023-07-13T15:50:12;33.90;36.40
44277;DHT22;29973;43.742;1.236;2023-07-13T15:52:39;36.40;32.50
44277;DHT22;29973;43.742;1.236;2023-07-13T15:55:05;33.40;36.20
44277;DHT22;29973;43.742;1.236;2023-07-13T15:57:31;34.50;35.20
44277;DHT22;29973;43.742;1.236;2023-07-13T15:59:57;36.90;31.20
44277;DHT22;29973;43.742;1.236;2023-07-13T16:02:22;34.10;34.20
44277;DHT22;29973;43.742;1.236;2023-07-13T16:04:48;30.70;41.40
44277;DHT22;29973;43.742;1.236;2023-07-13T16:07:15;32.60;39.10
44277;DHT22;29973;43.742;1.236;2023-07-13T16:09:45;34.80;33.80
44277;DHT22;29973;43.742;1.236;2023-07-13T16:12:13;33.50;34.30
44277;DHT22;29973;43.742;1.236;2023-07-13T16:14:40;35.40;33.10
44277;DHT22;29973;43.742;1.236;2023-07-13T16:17:10;35.00;30.80